createdAt,value
2018-08-13T01:56:39.034Z,1.40
2018-08-13T01:59:08.335Z,1.43
2018-08-13T02:01:47.066Z,1.47
2018-08-13T02:04:16.114Z,1.43
2018-08-13T02:06:56.022Z,1.20
2018-08-13T02:15:24.109Z,1.67
2018-08-13T03:46:15.522Z,1.90
2018-08-13T05:37:43.123Z,1.17
2018-08-13T05:40:11.505Z,1.80
2018-08-13T05:42:40.739Z,1.70
2018-08-13T05:45:10.736Z,1.07
2018-08-13T05:47:39.710Z,1.63
2018-08-13T05:50:11.908Z,1.70
2018-08-13T05:52:41.424Z,1.20
2018-08-13T05:55:11.606Z,1.37
2018-08-13T05:57:41.834Z,1.13
2018-08-13T06:00:14.608Z,1.30
2018-08-13T06:02:43.423Z,1.20
2018-08-13T06:05:12.958Z,1.50
2018-08-13T06:07:44.139Z,1.10
2018-08-13T06:10:18.458Z,1.00
2018-08-13T06:12:47.435Z,1.03
2018-08-13T06:15:18.143Z,0.93
2018-08-13T06:17:47.427Z,1.17
2018-08-13T06:20:18.216Z,1.20
2018-08-13T06:22:47.208Z,1.30
2018-08-13T06:25:16.247Z,1.13
2018-08-13T06:27:44.976Z,1.03
2018-08-13T06:30:19.392Z,1.30
2018-08-13T06:32:47.876Z,1.00
2018-08-13T06:35:16.181Z,1.20
2018-08-13T06:43:42.532Z,1.27
2018-08-13T06:48:50.336Z,1.17
2018-08-13T06:51:18.685Z,0.90
2018-08-13T06:53:47.683Z,0.90
2018-08-13T06:56:44.631Z,1.00
2018-08-13T06:59:15.881Z,1.00
2018-08-13T07:01:53.309Z,0.90
2018-08-13T07:04:23.993Z,1.20
2018-08-13T07:06:55.197Z,1.07
2018-08-13T07:09:24.082Z,1.00
2018-08-13T07:11:53.892Z,0.80
2018-08-13T07:14:22.220Z,1.00
2018-08-13T07:16:54.221Z,1.07
2018-08-13T07:19:23.848Z,0.90
2018-08-13T07:21:53.845Z,1.00
2018-08-13T07:24:23.646Z,1.00
2018-08-13T07:26:53.533Z,0.97
2018-08-13T07:29:22.632Z,1.10
2018-08-13T07:31:53.574Z,1.23
2018-08-13T07:34:32.144Z,0.80
2018-08-13T07:39:53.035Z,0.57
2018-08-13T07:45:23.380Z,0.90
2018-08-13T07:47:53.040Z,0.77
2018-08-13T07:50:22.753Z,0.90
2018-08-13T07:52:56.163Z,0.50
2018-08-13T07:55:26.616Z,1.00
2018-08-13T10:54:27.022Z,2.13
2018-08-13T11:03:11.589Z,1.53
2018-08-13T11:10:03.015Z,2.70
2018-08-13T11:26:28.038Z,2.57
2018-08-13T11:28:58.455Z,2.00
2018-08-13T11:31:27.419Z,2.43
2018-08-13T11:33:56.293Z,1.40
2018-08-13T11:36:25.337Z,2.03
2018-08-13T11:38:55.198Z,2.33
2018-08-13T11:41:24.243Z,0.93
2018-08-13T11:43:53.374Z,1.50
2018-08-13T11:46:22.382Z,1.50
2018-08-13T11:48:55.558Z,1.80
2018-08-13T11:51:25.170Z,1.97
2018-08-13T11:56:32.864Z,2.40
2018-08-13T11:59:05.132Z,2.10
2018-08-13T12:01:36.416Z,2.00
2018-08-13T12:04:10.366Z,2.60
2018-08-13T12:06:39.746Z,2.67
2018-08-13T12:09:21.383Z,1.77
2018-08-13T12:11:52.276Z,2.30
2018-08-13T12:14:25.730Z,2.30
2018-08-13T12:16:55.440Z,2.83
2018-08-13T12:19:25.509Z,1.50
2018-08-13T12:21:54.511Z,2.37
2018-08-13T12:24:24.771Z,2.00
2018-08-13T12:26:56.382Z,1.50
2018-08-13T12:29:26.209Z,2.33
2018-08-13T12:31:55.964Z,1.63
2018-08-13T12:34:29.633Z,2.27
2018-08-13T12:37:44.895Z,1.90
2018-08-13T12:40:18.126Z,2.03
2018-08-13T12:42:46.826Z,2.13
2018-08-13T12:45:25.849Z,2.60
2018-08-13T12:47:55.235Z,1.77
2018-08-13T12:53:25.988Z,1.70
2018-08-13T12:55:55.310Z,2.07
2018-08-13T14:06:03.420Z,1.43
2018-08-13T14:08:32.344Z,1.60
2018-08-13T14:11:01.305Z,2.10
2018-08-13T14:13:30.343Z,1.73
2018-08-13T14:15:58.791Z,1.70
2018-08-13T14:18:27.605Z,1.10
2018-08-13T14:20:56.360Z,1.37
2018-08-13T14:23:25.034Z,1.43
2018-08-13T14:25:53.570Z,1.00
2018-08-13T14:28:22.028Z,1.30
2018-08-13T14:30:50.555Z,1.80
2018-08-13T14:33:19.264Z,1.13
2018-08-13T14:35:49.045Z,1.20
2018-08-13T14:38:17.646Z,1.77
2018-08-13T14:40:46.346Z,2.03
2018-08-13T14:43:15.084Z,1.47
2018-08-13T14:45:44.142Z,1.53
2018-08-13T14:48:13.151Z,1.00
2018-08-13T14:50:41.828Z,1.20
2018-08-13T14:53:10.619Z,1.60
2018-08-13T14:55:39.155Z,1.53
2018-08-13T14:58:07.797Z,1.33
2018-08-13T15:00:37.923Z,1.47
2018-08-13T15:03:10.509Z,0.97
2018-08-13T15:05:39.809Z,1.43
2018-08-13T15:08:08.476Z,1.80
2018-08-13T15:10:37.409Z,2.00
2018-08-13T15:13:06.841Z,1.80
2018-08-13T15:15:35.707Z,1.80
2018-08-13T15:18:04.284Z,1.80
2018-08-13T15:20:32.892Z,2.10
2018-08-13T15:23:01.730Z,1.50
2018-08-13T15:25:30.373Z,1.20
2018-08-13T15:27:59.139Z,1.30
2018-08-13T15:30:28.966Z,1.30
2018-08-13T15:32:57.661Z,1.50
2018-08-13T15:35:26.535Z,1.33
2018-08-13T15:37:55.393Z,1.50
2018-08-13T15:40:24.163Z,1.10
2018-08-13T15:42:52.830Z,1.17
2018-08-13T15:45:22.833Z,1.20
2018-08-13T15:47:51.425Z,1.10
2018-08-13T15:50:21.053Z,1.17
2018-08-13T15:52:49.961Z,1.30
2018-08-13T15:55:19.363Z,2.07
2018-08-13T15:57:48.601Z,1.00
2018-08-13T16:00:19.455Z,1.07
2018-08-13T16:02:48.785Z,1.40
2018-08-13T16:05:17.670Z,1.50
2018-08-13T16:07:47.080Z,1.50
2018-08-13T16:10:16.690Z,1.33
2018-08-13T16:12:45.712Z,1.20
2018-08-13T16:15:14.261Z,1.30
2018-08-13T16:17:42.988Z,1.50
2018-08-13T16:20:16.337Z,1.30
2018-08-13T16:22:45.853Z,1.47
2018-08-13T16:25:14.840Z,1.07
2018-08-13T16:27:43.849Z,1.20
2018-08-13T16:30:18.411Z,1.00
2018-08-13T16:32:47.952Z,1.00
2018-08-13T16:35:17.337Z,0.70
2018-08-13T16:37:46.033Z,0.97
2018-08-13T16:40:15.280Z,1.20
2018-08-13T16:42:43.742Z,1.43
2018-08-13T16:45:13.345Z,1.30
2018-08-13T16:47:42.202Z,1.60
2018-08-13T16:50:17.039Z,1.27
2018-08-13T16:52:45.541Z,1.47
2018-08-13T16:55:14.277Z,1.30
2018-08-13T16:57:43.748Z,1.33
2018-08-13T17:00:15.352Z,1.10
2018-08-13T17:02:43.844Z,1.10
2018-08-13T17:05:13.157Z,1.70
2018-08-13T17:07:43.824Z,1.50
2018-08-13T17:10:20.868Z,1.47
2018-08-13T17:12:50.142Z,1.60
2018-08-13T17:15:18.617Z,1.70
2018-08-13T17:17:49.842Z,1.67
2018-08-13T17:20:20.813Z,1.70
2018-08-13T17:22:49.425Z,1.70
2018-08-13T17:25:18.216Z,1.20
2018-08-13T17:27:46.746Z,1.43
2018-08-13T17:30:18.376Z,1.23
2018-08-13T17:32:49.136Z,1.50
2018-08-13T17:35:19.705Z,1.40
2018-08-13T17:37:49.114Z,1.43
2018-08-13T17:40:20.520Z,1.30
2018-08-13T17:42:49.932Z,1.93
2018-08-13T17:45:18.521Z,1.47
2018-08-13T17:47:47.871Z,3.10
2018-08-13T17:50:17.969Z,2.57
2018-08-13T17:52:46.712Z,3.80
2018-08-13T17:55:15.696Z,3.07
2018-08-13T17:57:44.629Z,3.30
2018-08-13T18:00:16.691Z,2.93
2018-08-13T18:02:45.285Z,2.00
2018-08-13T18:05:18.137Z,1.67
2018-08-13T18:07:47.286Z,1.70
2018-08-13T18:10:19.829Z,1.73
2018-08-13T18:12:48.524Z,2.03
2018-08-13T18:15:17.759Z,1.40
2018-08-13T18:17:46.999Z,1.73
2018-08-13T18:20:15.510Z,1.63
2018-08-13T18:22:44.397Z,1.50
2018-08-13T18:25:14.067Z,2.07
2018-08-13T18:27:45.137Z,1.73
2018-08-13T18:30:16.345Z,1.30
2018-08-13T18:32:45.376Z,1.70
2018-08-13T18:35:14.261Z,1.73
2018-08-13T18:37:43.401Z,1.70
2018-08-13T18:40:15.836Z,2.40
2018-08-13T18:42:44.951Z,5.30
2018-08-13T18:45:13.918Z,2.20
2018-08-13T18:47:42.598Z,1.87
2018-08-13T18:50:14.475Z,1.47
2018-08-13T18:52:43.667Z,1.57
2018-08-13T18:55:14.949Z,2.00
2018-08-13T18:57:43.641Z,1.77
2018-08-13T19:00:15.562Z,1.70
2018-08-13T19:02:44.131Z,1.83
2018-08-13T19:05:14.889Z,1.73
2018-08-13T19:07:44.533Z,1.60
2018-08-13T19:10:14.500Z,2.13
2018-08-13T19:12:43.098Z,1.83
2018-08-13T19:15:18.125Z,1.80
2018-08-13T19:17:47.924Z,1.87
2018-08-13T19:20:16.761Z,2.13
2018-08-13T19:22:45.742Z,2.20
2018-08-13T19:25:22.507Z,1.80
2018-08-13T19:27:51.153Z,1.80
2018-08-13T19:30:20.485Z,1.63
2018-08-13T19:32:49.915Z,1.83
2018-08-13T19:35:18.678Z,1.50
2018-08-13T19:37:47.741Z,1.57
2018-08-13T19:40:18.241Z,2.80
2018-08-13T19:42:47.649Z,1.70
2018-08-13T19:45:17.152Z,2.50
2018-08-13T19:47:46.377Z,2.17
2018-08-13T19:50:15.279Z,2.30
2018-08-13T19:52:46.055Z,1.80
2018-08-13T19:55:15.002Z,1.73
2018-08-13T19:57:44.151Z,1.97
2018-08-13T20:00:15.534Z,2.23
2018-08-13T20:02:45.009Z,1.80
2018-08-13T20:05:13.516Z,3.27
2018-08-13T20:07:41.997Z,2.20
2018-08-13T20:10:12.439Z,2.03
2018-08-13T20:12:41.466Z,2.57
2018-08-13T20:15:10.237Z,2.60
2018-08-13T20:17:38.952Z,2.00
2018-08-13T20:20:12.321Z,2.13
2018-08-13T20:22:41.189Z,1.50
2018-08-13T20:25:11.432Z,2.03
2018-08-13T20:27:40.296Z,2.00
2018-08-13T20:30:10.878Z,1.53
2018-08-13T20:32:39.884Z,2.47
2018-08-13T20:35:08.481Z,2.13
2018-08-13T20:37:37.985Z,2.50
2018-08-13T20:40:09.658Z,2.03
2018-08-13T20:42:39.053Z,2.50
2018-08-13T20:45:09.625Z,1.30
2018-08-13T20:47:38.074Z,2.20
2018-08-13T20:50:10.597Z,2.10
2018-08-13T20:52:39.484Z,1.80
2018-08-13T20:55:12.159Z,1.80
2018-08-13T20:57:41.789Z,2.40
2018-08-13T21:00:12.841Z,1.63
2018-08-13T21:02:42.051Z,1.60
2018-08-13T21:05:10.844Z,2.10
2018-08-13T21:07:39.311Z,1.70
2018-08-13T21:10:18.639Z,1.97
2018-08-13T21:12:47.824Z,1.67
2018-08-13T21:15:17.137Z,1.73
2018-08-13T21:17:46.097Z,1.40
2018-08-13T21:20:18.507Z,2.20
2018-08-13T21:22:47.026Z,2.57
2018-08-13T21:25:16.320Z,2.07
2018-08-13T21:27:44.990Z,2.53
2018-08-13T21:30:14.256Z,1.80
2018-08-13T21:32:43.620Z,2.00
2018-08-13T21:35:16.605Z,1.80
2018-08-13T21:37:45.332Z,2.10
2018-08-13T21:40:13.954Z,2.87
2018-08-13T21:42:42.646Z,2.27
2018-08-13T21:45:12.757Z,2.00
2018-08-13T21:47:41.461Z,2.77
2018-08-13T21:50:14.097Z,2.53
2018-08-13T21:52:42.708Z,2.23
2018-08-13T21:55:11.244Z,2.17
2018-08-13T21:57:40.448Z,2.13
2018-08-13T22:00:19.998Z,1.90
2018-08-13T22:02:48.599Z,2.73
2018-08-13T22:05:17.149Z,2.47
2018-08-13T22:07:45.920Z,2.90
2018-08-13T22:10:14.400Z,2.07
2018-08-13T22:12:43.077Z,2.40
2018-08-13T22:15:24.436Z,2.27
2018-08-13T22:17:53.800Z,2.57
2018-08-13T22:20:22.379Z,2.50
2018-08-13T22:22:50.921Z,2.47
2018-08-13T22:25:22.925Z,2.40
2018-08-13T22:27:51.513Z,2.30
2018-08-13T22:30:20.374Z,2.37
2018-08-13T22:32:49.169Z,2.40
2018-08-13T22:35:17.974Z,2.70
2018-08-13T22:37:46.417Z,2.03
2018-08-13T22:40:17.741Z,2.20
2018-08-13T22:42:46.681Z,2.50
2018-08-13T22:45:17.113Z,2.63
2018-08-13T22:47:45.647Z,3.23
2018-08-13T22:50:14.165Z,2.87
2018-08-13T22:52:42.714Z,3.10
2018-08-13T22:55:13.882Z,2.63
2018-08-13T22:57:42.461Z,2.40
2018-08-13T23:00:14.921Z,2.60
2018-08-13T23:02:44.178Z,2.63
2018-08-13T23:05:18.988Z,3.00
2018-08-13T23:07:47.817Z,3.07
2018-08-13T23:10:17.905Z,2.60
2018-08-13T23:12:49.386Z,2.83
2018-08-13T23:15:18.228Z,3.27
2018-08-13T23:17:47.064Z,3.40
2018-08-13T23:20:21.193Z,3.17
2018-08-13T23:22:55.166Z,4.03
2018-08-13T23:25:23.681Z,3.50
2018-08-13T23:27:53.981Z,3.73
2018-08-13T23:30:22.629Z,6.00
2018-08-13T23:32:52.729Z,4.33
2018-08-13T23:35:22.125Z,3.37
2018-08-13T23:37:50.964Z,3.77
2018-08-13T23:40:19.616Z,4.03
2018-08-13T23:42:48.330Z,5.13
2018-08-13T23:45:18.285Z,4.03
2018-08-13T23:47:47.064Z,4.03
2018-08-13T23:50:19.312Z,4.33
2018-08-13T23:52:48.938Z,4.30
2018-08-13T23:55:24.382Z,4.80
2018-08-13T23:57:53.452Z,4.40
